sensor_id;sensor_type;location;lat;lon;timestamp;P1;durP1;ratioP1;P2;durP2;ratioP2
10467;SDS011;5281;48.878;9.394;2023-03-13T00:00:23;8.63;;;2.43;;
10467;SDS011;5281;48.878;9.394;2023-03-13T00:02:50;8.70;;;2.57;;
10467;SDS011;5281;48.878;9.394;2023-03-13T00:05:17;7.47;;;2.70;;
10467;SDS011;5281;48.878;9.394;2023-03-13T00:07:43;8.87;;;2.70;;
10467;SDS011;5281;48.878;9.394;2023-03-13T00:10:11;7.27;;;2.33;;
10467;SDS011;5281;48.878;9.394;2023-03-13T00:12:38;11.47;;;2.83;;
10467;SDS011;5281;48.878;9.394;2023-03-13T00:15:05;11.37;;;2.93;;
10467;SDS011;5281;48.878;9.394;2023-03-13T00:17:33;8.87;;;2.60;;
10467;SDS011;5281;48.878;9.394;2023-03-13T00:19:59;8.00;;;2.80;;
10467;SDS011;5281;48.878;9.394;2023-03-13T00:22:26;11.17;;;2.77;;
10467;SDS011;5281;48.878;9.394;2023-03-13T00:24:53;9.43;;;2.87;;
10467;SDS011;5281;48.878;9.394;2023-03-13T00:27:21;10.90;;;2.83;;
10467;SDS011;5281;48.878;9.394;2023-03-13T00:29:48;7.00;;;2.87;;
10467;SDS011;5281;48.878;9.394;2023-03-13T00:32:14;6.40;;;2.47;;
10467;SDS011;5281;48.878;9.394;2023-03-13T00:34:41;9.40;;;2.40;;
10467;SDS011;5281;48.878;9.394;2023-03-13T00:37:08;8.07;;;2.53;;
10467;SDS011;5281;48.878;9.394;2023-03-13T00:39:35;9.63;;;2.40;;
10467;SDS011;5281;48.878;9.394;2023-03-13T00:42:01;10.37;;;2.67;;
10467;SDS011;5281;48.878;9.394;2023-03-13T00:44:30;9.53;;;2.20;;
10467;SDS011;5281;48.878;9.394;2023-03-13T00:46:57;10.33;;;2.60;;
10467;SDS011;5281;48.878;9.394;2023-03-13T00:49:24;12.37;;;3.00;;
10467;SDS011;5281;48.878;9.394;2023-03-13T00:51:51;10.03;;;3.17;;
10467;SDS011;5281;48.878;9.394;2023-03-13T00:54:17;8.83;;;2.80;;
10467;SDS011;5281;48.878;9.394;2023-03-13T00:56:44;6.43;;;2.47;;
10467;SDS011;5281;48.878;9.394;2023-03-13T00:59:11;9.23;;;3.07;;
10467;SDS011;5281;48.878;9.394;2023-03-13T01:01:40;7.00;;;2.30;;
10467;SDS011;5281;48.878;9.394;2023-03-13T01:04:07;8.87;;;3.07;;
10467;SDS011;5281;48.878;9.394;2023-03-13T01:06:36;8.60;;;2.87;;
10467;SDS011;5281;48.878;9.394;2023-03-13T01:09:07;10.97;;;2.73;;
10467;SDS011;5281;48.878;9.394;2023-03-13T01:11:35;11.40;;;2.37;;
10467;SDS011;5281;48.878;9.394;2023-03-13T01:14:04;11.83;;;2.47;;
10467;SDS011;5281;48.878;9.394;2023-03-13T01:16:33;10.63;;;2.73;;
10467;SDS011;5281;48.878;9.394;2023-03-13T01:19:02;9.37;;;2.47;;
10467;SDS011;5281;48.878;9.394;2023-03-13T01:21:30;8.77;;;2.37;;
10467;SDS011;5281;48.878;9.394;2023-03-13T01:23:57;8.37;;;2.20;;
10467;SDS011;5281;48.878;9.394;2023-03-13T01:26:24;12.00;;;2.30;;
10467;SDS011;5281;48.878;9.394;2023-03-13T01:28:51;7.13;;;2.30;;
10467;SDS011;5281;48.878;9.394;2023-03-13T01:31:19;7.23;;;2.20;;
10467;SDS011;5281;48.878;9.394;2023-03-13T01:33:48;10.40;;;2.37;;
10467;SDS011;5281;48.878;9.394;2023-03-13T01:36:17;9.73;;;2.60;;
10467;SDS011;5281;48.878;9.394;2023-03-13T01:38:46;8.30;;;2.27;;
10467;SDS011;5281;48.878;9.394;2023-03-13T01:41:13;10.90;;;2.50;;
10467;SDS011;5281;48.878;9.394;2023-03-13T01:43:40;6.33;;;2.10;;
10467;SDS011;5281;48.878;9.394;2023-03-13T01:46:12;9.70;;;2.70;;
10467;SDS011;5281;48.878;9.394;2023-03-13T01:48:43;7.30;;;2.00;;
10467;SDS011;5281;48.878;9.394;2023-03-13T01:51:17;10.00;;;2.23;;
10467;SDS011;5281;48.878;9.394;2023-03-13T01:53:47;7.87;;;2.00;;
10467;SDS011;5281;48.878;9.394;2023-03-13T01:56:18;7.43;;;2.20;;
10467;SDS011;5281;48.878;9.394;2023-03-13T01:58:47;8.43;;;2.23;;
10467;SDS011;5281;48.878;9.394;2023-03-13T02:01:15;8.27;;;2.20;;
10467;SDS011;5281;48.878;9.394;2023-03-13T02:03:43;6.63;;;1.90;;
10467;SDS011;5281;48.878;9.394;2023-03-13T02:06:11;7.90;;;2.00;;
10467;SDS011;5281;48.878;9.394;2023-03-13T02:08:41;7.90;;;2.20;;
10467;SDS011;5281;48.878;9.394;2023-03-13T02:11:15;6.37;;;2.00;;
10467;SDS011;5281;48.878;9.394;2023-03-13T02:13:49;6.00;;;2.00;;
10467;SDS011;5281;48.878;9.394;2023-03-13T02:16:16;7.07;;;1.93;;
10467;SDS011;5281;48.878;9.394;2023-03-13T02:18:44;5.57;;;1.80;;
10467;SDS011;5281;48.878;9.394;2023-03-13T02:21:13;6.63;;;2.23;;
10467;SDS011;5281;48.878;9.394;2023-03-13T02:23:49;9.97;;;1.80;;
10467;SDS011;5281;48.878;9.394;2023-03-13T02:26:23;5.50;;;1.57;;
10467;SDS011;5281;48.878;9.394;2023-03-13T02:28:50;8.90;;;1.90;;
10467;SDS011;5281;48.878;9.394;2023-03-13T02:31:17;5.90;;;1.83;;
10467;SDS011;5281;48.878;9.394;2023-03-13T02:33:44;7.10;;;1.57;;
10467;SDS011;5281;48.878;9.394;2023-03-13T02:36:11;5.50;;;1.50;;
10467;SDS011;5281;48.878;9.394;2023-03-13T02:38:41;4.00;;;1.70;;
10467;SDS011;5281;48.878;9.394;2023-03-13T02:41:13;4.10;;;1.50;;
10467;SDS011;5281;48.878;9.394;2023-03-13T02:43:42;6.53;;;1.83;;
10467;SDS011;5281;48.878;9.394;2023-03-13T02:46:13;7.53;;;1.90;;
10467;SDS011;5281;48.878;9.394;2023-03-13T02:48:42;3.07;;;1.30;;
10467;SDS011;5281;48.878;9.394;2023-03-13T02:51:11;7.30;;;1.80;;
10467;SDS011;5281;48.878;9.394;2023-03-13T02:53:42;4.90;;;1.37;;
10467;SDS011;5281;48.878;9.394;2023-03-13T02:56:10;6.63;;;1.57;;
10467;SDS011;5281;48.878;9.394;2023-03-13T02:58:39;4.93;;;1.60;;
10467;SDS011;5281;48.878;9.394;2023-03-13T03:01:08;4.23;;;1.57;;
10467;SDS011;5281;48.878;9.394;2023-03-13T03:03:34;6.17;;;1.33;;
10467;SDS011;5281;48.878;9.394;2023-03-13T03:06:02;5.40;;;1.60;;
10467;SDS011;5281;48.878;9.394;2023-03-13T03:08:30;4.13;;;1.47;;
10467;SDS011;5281;48.878;9.394;2023-03-13T03:10:57;3.30;;;1.23;;
10467;SDS011;5281;48.878;9.394;2023-03-13T03:13:24;5.17;;;1.60;;
10467;SDS011;5281;48.878;9.394;2023-03-13T03:15:51;5.40;;;1.30;;
10467;SDS011;5281;48.878;9.394;2023-03-13T03:18:19;6.10;;;1.37;;
10467;SDS011;5281;48.878;9.394;2023-03-13T03:20:46;4.70;;;1.60;;
10467;SDS011;5281;48.878;9.394;2023-03-13T03:23:12;4.33;;;1.40;;
10467;SDS011;5281;48.878;9.394;2023-03-13T03:25:39;3.30;;;1.30;;
10467;SDS011;5281;48.878;9.394;2023-03-13T03:28:06;3.90;;;1.43;;
10467;SDS011;5281;48.878;9.394;2023-03-13T03:30:32;4.50;;;1.40;;
10467;SDS011;5281;48.878;9.394;2023-03-13T03:33:01;7.17;;;1.20;;
10467;SDS011;5281;48.878;9.394;2023-03-13T03:35:30;3.03;;;1.10;;
10467;SDS011;5281;48.878;9.394;2023-03-13T03:37:58;4.73;;;1.67;;
10467;SDS011;5281;48.878;9.394;2023-03-13T03:40:24;4.90;;;1.37;;
10467;SDS011;5281;48.878;9.394;2023-03-13T03:42:52;5.37;;;1.50;;
10467;SDS011;5281;48.878;9.394;2023-03-13T03:45:18;5.97;;;1.40;;
10467;SDS011;5281;48.878;9.394;2023-03-13T03:47:45;4.20;;;1.10;;
10467;SDS011;5281;48.878;9.394;2023-03-13T03:50:12;5.07;;;1.20;;
10467;SDS011;5281;48.878;9.394;2023-03-13T03:52:40;6.23;;;1.73;;
10467;SDS011;5281;48.878;9.394;2023-03-13T03:55:07;4.03;;;1.70;;
10467;SDS011;5281;48.878;9.394;2023-03-13T03:57:34;2.30;;;0.93;;
10467;SDS011;5281;48.878;9.394;2023-03-13T04:00:01;4.73;;;1.17;;
10467;SDS011;5281;48.878;9.394;2023-03-13T04:02:29;3.50;;;1.30;;
10467;SDS011;5281;48.878;9.394;2023-03-13T04:04:55;5.00;;;1.87;;
10467;SDS011;5281;48.878;9.394;2023-03-13T04:07:22;5.40;;;1.33;;
10467;SDS011;5281;48.878;9.394;2023-03-13T04:09:51;6.00;;;2.37;;
10467;SDS011;5281;48.878;9.394;2023-03-13T04:12:18;5.17;;;1.60;;
10467;SDS011;5281;48.878;9.394;2023-03-13T04:14:45;2.43;;;1.00;;
10467;SDS011;5281;48.878;9.394;2023-03-13T04:17:11;4.13;;;1.20;;
10467;SDS011;5281;48.878;9.394;2023-03-13T04:19:38;4.40;;;1.73;;
10467;SDS011;5281;48.878;9.394;2023-03-13T04:22:05;5.43;;;1.73;;
10467;SDS011;5281;48.878;9.394;2023-03-13T04:24:32;4.93;;;1.60;;
10467;SDS011;5281;48.878;9.394;2023-03-13T04:27:00;2.17;;;0.97;;
10467;SDS011;5281;48.878;9.394;2023-03-13T04:29:27;3.00;;;1.20;;
10467;SDS011;5281;48.878;9.394;2023-03-13T04:31:54;1.83;;;1.20;;
10467;SDS011;5281;48.878;9.394;2023-03-13T04:34:21;2.97;;;0.90;;
10467;SDS011;5281;48.878;9.394;2023-03-13T04:36:47;2.77;;;0.90;;
10467;SDS011;5281;48.878;9.394;2023-03-13T04:39:14;2.10;;;0.90;;
10467;SDS011;5281;48.878;9.394;2023-03-13T04:41:41;2.73;;;0.90;;
10467;SDS011;5281;48.878;9.394;2023-03-13T04:44:09;3.50;;;1.53;;
10467;SDS011;5281;48.878;9.394;2023-03-13T04:46:36;3.00;;;0.70;;
10467;SDS011;5281;48.878;9.394;2023-03-13T04:49:02;3.97;;;1.10;;
10467;SDS011;5281;48.878;9.394;2023-03-13T04:51:29;1.07;;;0.80;;
10467;SDS011;5281;48.878;9.394;2023-03-13T04:53:56;0.77;;;0.60;;
10467;SDS011;5281;48.878;9.394;2023-03-13T04:56:23;1.33;;;0.63;;
10467;SDS011;5281;48.878;9.394;2023-03-13T04:58:51;2.60;;;0.77;;
10467;SDS011;5281;48.878;9.394;2023-03-13T05:01:19;1.07;;;0.60;;
10467;SDS011;5281;48.878;9.394;2023-03-13T05:03:46;4.30;;;0.93;;
10467;SDS011;5281;48.878;9.394;2023-03-13T05:06:13;1.87;;;0.77;;
10467;SDS011;5281;48.878;9.394;2023-03-13T05:08:40;1.50;;;0.80;;
10467;SDS011;5281;48.878;9.394;2023-03-13T05:11:06;3.33;;;1.10;;
10467;SDS011;5281;48.878;9.394;2023-03-13T05:13:33;2.47;;;0.90;;
10467;SDS011;5281;48.878;9.394;2023-03-13T05:16:00;1.37;;;0.70;;
10467;SDS011;5281;48.878;9.394;2023-03-13T05:18:28;2.20;;;0.90;;
10467;SDS011;5281;48.878;9.394;2023-03-13T05:20:55;2.10;;;0.40;;
10467;SDS011;5281;48.878;9.394;2023-03-13T05:23:22;2.33;;;0.80;;
10467;SDS011;5281;48.878;9.394;2023-03-13T05:25:49;2.67;;;0.80;;
10467;SDS011;5281;48.878;9.394;2023-03-13T05:28:15;2.27;;;0.60;;
10467;SDS011;5281;48.878;9.394;2023-03-13T05:30:42;1.10;;;0.50;;
10467;SDS011;5281;48.878;9.394;2023-03-13T05:33:09;1.77;;;0.73;;
10467;SDS011;5281;48.878;9.394;2023-03-13T05:35:37;7.17;;;1.30;;
10467;SDS011;5281;48.878;9.394;2023-03-13T05:38:04;4.93;;;0.73;;
10467;SDS011;5281;48.878;9.394;2023-03-13T05:40:30;2.63;;;0.70;;
10467;SDS011;5281;48.878;9.394;2023-03-13T05:42:57;3.87;;;2.20;;
10467;SDS011;5281;48.878;9.394;2023-03-13T05:45:24;1.77;;;0.70;;
10467;SDS011;5281;48.878;9.394;2023-03-13T05:47:51;1.43;;;0.77;;
10467;SDS011;5281;48.878;9.394;2023-03-13T05:50:18;0.93;;;0.60;;
10467;SDS011;5281;48.878;9.394;2023-03-13T05:52:46;2.20;;;1.13;;
10467;SDS011;5281;48.878;9.394;2023-03-13T05:55:13;1.97;;;0.83;;
10467;SDS011;5281;48.878;9.394;2023-03-13T05:57:42;2.73;;;0.90;;
10467;SDS011;5281;48.878;9.394;2023-03-13T06:00:11;0.80;;;0.50;;
10467;SDS011;5281;48.878;9.394;2023-03-13T06:02:38;1.33;;;0.77;;
10467;SDS011;5281;48.878;9.394;2023-03-13T06:05:06;1.17;;;0.67;;
10467;SDS011;5281;48.878;9.394;2023-03-13T06:07:33;1.27;;;0.40;;
10467;SDS011;5281;48.878;9.394;2023-03-13T06:10:01;2.03;;;0.80;;
10467;SDS011;5281;48.878;9.394;2023-03-13T06:12:29;2.10;;;0.57;;
10467;SDS011;5281;48.878;9.394;2023-03-13T06:14:56;2.63;;;1.10;;
10467;SDS011;5281;48.878;9.394;2023-03-13T06:17:23;1.20;;;0.60;;
10467;SDS011;5281;48.878;9.394;2023-03-13T06:19:50;1.60;;;0.60;;
10467;SDS011;5281;48.878;9.394;2023-03-13T06:22:17;0.90;;;0.60;;
10467;SDS011;5281;48.878;9.394;2023-03-13T06:24:44;3.27;;;0.80;;
10467;SDS011;5281;48.878;9.394;2023-03-13T06:27:14;2.30;;;0.80;;
10467;SDS011;5281;48.878;9.394;2023-03-13T06:29:41;2.97;;;0.70;;
10467;SDS011;5281;48.878;9.394;2023-03-13T06:32:07;1.33;;;0.73;;
10467;SDS011;5281;48.878;9.394;2023-03-13T06:34:35;1.00;;;0.57;;
10467;SDS011;5281;48.878;9.394;2023-03-13T06:37:02;1.40;;;0.60;;
10467;SDS011;5281;48.878;9.394;2023-03-13T06:39:29;0.70;;;0.50;;
10467;SDS011;5281;48.878;9.394;2023-03-13T06:41:56;3.77;;;0.97;;
10467;SDS011;5281;48.878;9.394;2023-03-13T06:44:25;1.63;;;0.80;;
10467;SDS011;5281;48.878;9.394;2023-03-13T06:46:52;1.27;;;0.63;;
10467;SDS011;5281;48.878;9.394;2023-03-13T06:49:18;1.30;;;0.40;;
10467;SDS011;5281;48.878;9.394;2023-03-13T06:51:46;1.13;;;0.43;;
10467;SDS011;5281;48.878;9.394;2023-03-13T06:54:12;1.80;;;0.67;;
10467;SDS011;5281;48.878;9.394;2023-03-13T06:56:39;0.63;;;0.50;;
10467;SDS011;5281;48.878;9.394;2023-03-13T06:59:06;1.07;;;0.50;;
10467;SDS011;5281;48.878;9.394;2023-03-13T07:01:34;0.60;;;0.30;;
10467;SDS011;5281;48.878;9.394;2023-03-13T07:04:01;1.40;;;0.40;;
10467;SDS011;5281;48.878;9.394;2023-03-13T07:06:28;1.00;;;0.60;;
10467;SDS011;5281;48.878;9.394;2023-03-13T07:08:55;2.40;;;0.30;;
10467;SDS011;5281;48.878;9.394;2023-03-13T07:11:22;1.10;;;0.30;;
10467;SDS011;5281;48.878;9.394;2023-03-13T07:13:49;0.70;;;0.20;;
10467;SDS011;5281;48.878;9.394;2023-03-13T07:16:20;2.03;;;0.70;;
10467;SDS011;5281;48.878;9.394;2023-03-13T07:18:49;1.63;;;0.60;;
10467;SDS011;5281;48.878;9.394;2023-03-13T07:21:16;0.67;;;0.40;;
10467;SDS011;5281;48.878;9.394;2023-03-13T07:23:43;0.87;;;0.57;;
10467;SDS011;5281;48.878;9.394;2023-03-13T07:26:11;0.60;;;0.30;;
10467;SDS011;5281;48.878;9.394;2023-03-13T07:28:39;1.07;;;0.40;;
10467;SDS011;5281;48.878;9.394;2023-03-13T07:31:07;2.87;;;1.80;;
10467;SDS011;5281;48.878;9.394;2023-03-13T07:33:36;0.50;;;0.37;;
10467;SDS011;5281;48.878;9.394;2023-03-13T07:36:05;0.60;;;0.40;;
10467;SDS011;5281;48.878;9.394;2023-03-13T07:38:32;2.77;;;0.50;;
10467;SDS011;5281;48.878;9.394;2023-03-13T07:41:00;2.60;;;0.70;;
10467;SDS011;5281;48.878;9.394;2023-03-13T07:43:26;1.40;;;0.73;;
10467;SDS011;5281;48.878;9.394;2023-03-13T07:45:55;1.40;;;0.50;;
10467;SDS011;5281;48.878;9.394;2023-03-13T07:48:24;2.33;;;0.40;;
10467;SDS011;5281;48.878;9.394;2023-03-13T07:50:54;0.90;;;0.37;;
10467;SDS011;5281;48.878;9.394;2023-03-13T07:53:22;2.10;;;0.63;;
10467;SDS011;5281;48.878;9.394;2023-03-13T07:55:50;2.13;;;0.93;;
10467;SDS011;5281;48.878;9.394;2023-03-13T07:58:18;1.17;;;0.57;;
10467;SDS011;5281;48.878;9.394;2023-03-13T08:00:46;1.23;;;0.40;;
10467;SDS011;5281;48.878;9.394;2023-03-13T08:03:13;0.60;;;0.43;;
10467;SDS011;5281;48.878;9.394;2023-03-13T08:05:40;1.03;;;0.53;;
10467;SDS011;5281;48.878;9.394;2023-03-13T08:08:07;1.33;;;0.50;;
10467;SDS011;5281;48.878;9.394;2023-03-13T08:10:35;1.00;;;0.40;;
10467;SDS011;5281;48.878;9.394;2023-03-13T08:13:02;0.75;;;0.47;;
10467;SDS011;5281;48.878;9.394;2023-03-13T08:15:29;1.43;;;0.83;;
10467;SDS011;5281;48.878;9.394;2023-03-13T08:17:56;1.03;;;0.50;;
10467;SDS011;5281;48.878;9.394;2023-03-13T08:20:23;1.77;;;0.47;;
10467;SDS011;5281;48.878;9.394;2023-03-13T08:22:50;0.52;;;0.30;;
10467;SDS011;5281;48.878;9.394;2023-03-13T08:25:17;0.93;;;0.38;;
10467;SDS011;5281;48.878;9.394;2023-03-13T08:27:45;0.30;;;0.28;;
10467;SDS011;5281;48.878;9.394;2023-03-13T08:30:12;1.52;;;0.60;;
10467;SDS011;5281;48.878;9.394;2023-03-13T08:32:39;1.60;;;0.65;;
10467;SDS011;5281;48.878;9.394;2023-03-13T08:35:07;1.33;;;0.82;;
10467;SDS011;5281;48.878;9.394;2023-03-13T08:37:34;1.52;;;0.50;;
10467;SDS011;5281;48.878;9.394;2023-03-13T08:40:00;1.80;;;0.50;;
10467;SDS011;5281;48.878;9.394;2023-03-13T08:42:34;0.88;;;0.50;;
10467;SDS011;5281;48.878;9.394;2023-03-13T08:45:02;1.92;;;0.55;;
10467;SDS011;5281;48.878;9.394;2023-03-13T08:47:30;1.63;;;0.50;;
10467;SDS011;5281;48.878;9.394;2023-03-13T08:49:57;1.27;;;0.50;;
10467;SDS011;5281;48.878;9.394;2023-03-13T08:52:24;2.22;;;0.60;;
10467;SDS011;5281;48.878;9.394;2023-03-13T08:54:51;2.35;;;0.52;;
10467;SDS011;5281;48.878;9.394;2023-03-13T08:57:18;0.85;;;0.50;;
10467;SDS011;5281;48.878;9.394;2023-03-13T08:59:45;1.92;;;0.40;;
10467;SDS011;5281;48.878;9.394;2023-03-13T09:02:13;0.85;;;0.60;;
10467;SDS011;5281;48.878;9.394;2023-03-13T09:04:44;2.67;;;0.90;;
10467;SDS011;5281;48.878;9.394;2023-03-13T09:07:11;3.10;;;0.85;;
10467;SDS011;5281;48.878;9.394;2023-03-13T09:09:38;1.50;;;0.70;;
10467;SDS011;5281;48.878;9.394;2023-03-13T09:12:04;1.42;;;0.65;;
10467;SDS011;5281;48.878;9.394;2023-03-13T09:14:32;1.30;;;0.60;;
10467;SDS011;5281;48.878;9.394;2023-03-13T09:16:59;2.65;;;0.70;;
10467;SDS011;5281;48.878;9.394;2023-03-13T09:19:27;1.85;;;0.65;;
10467;SDS011;5281;48.878;9.394;2023-03-13T09:21:54;3.70;;;0.75;;
10467;SDS011;5281;48.878;9.394;2023-03-13T09:24:21;1.13;;;0.75;;
10467;SDS011;5281;48.878;9.394;2023-03-13T09:26:48;2.50;;;0.77;;
10467;SDS011;5281;48.878;9.394;2023-03-13T09:29:14;1.63;;;1.00;;
10467;SDS011;5281;48.878;9.394;2023-03-13T09:31:41;8.65;;;1.15;;
10467;SDS011;5281;48.878;9.394;2023-03-13T09:34:08;5.70;;;1.20;;
10467;SDS011;5281;48.878;9.394;2023-03-13T09:36:36;5.05;;;1.00;;
10467;SDS011;5281;48.878;9.394;2023-03-13T09:39:03;4.15;;;0.73;;
10467;SDS011;5281;48.878;9.394;2023-03-13T09:41:31;4.43;;;1.95;;
10467;SDS011;5281;48.878;9.394;2023-03-13T09:44:05;1.70;;;1.00;;
10467;SDS011;5281;48.878;9.394;2023-03-13T09:46:39;4.15;;;1.13;;
10467;SDS011;5281;48.878;9.394;2023-03-13T09:49:11;6.78;;;1.10;;
10467;SDS011;5281;48.878;9.394;2023-03-13T09:51:45;4.53;;;1.23;;
10467;SDS011;5281;48.878;9.394;2023-03-13T09:54:22;2.38;;;0.98;;
10467;SDS011;5281;48.878;9.394;2023-03-13T09:56:54;3.30;;;1.23;;
10467;SDS011;5281;48.878;9.394;2023-03-13T09:59:26;1.92;;;0.98;;
10467;SDS011;5281;48.878;9.394;2023-03-13T10:02:00;3.22;;;1.08;;
10467;SDS011;5281;48.878;9.394;2023-03-13T10:04:31;2.58;;;1.35;;
10467;SDS011;5281;48.878;9.394;2023-03-13T10:07:08;1.48;;;0.80;;
10467;SDS011;5281;48.878;9.394;2023-03-13T10:09:36;3.08;;;0.70;;
10467;SDS011;5281;48.878;9.394;2023-03-13T10:12:05;2.30;;;1.10;;
10467;SDS011;5281;48.878;9.394;2023-03-13T10:14:41;1.60;;;0.52;;
10467;SDS011;5281;48.878;9.394;2023-03-13T10:17:12;4.38;;;1.40;;
10467;SDS011;5281;48.878;9.394;2023-03-13T10:19:45;1.40;;;0.55;;
10467;SDS011;5281;48.878;9.394;2023-03-13T10:22:23;1.88;;;1.10;;
10467;SDS011;5281;48.878;9.394;2023-03-13T10:24:53;2.28;;;1.13;;
10467;SDS011;5281;48.878;9.394;2023-03-13T10:27:23;2.05;;;0.98;;
10467;SDS011;5281;48.878;9.394;2023-03-13T10:29:50;3.25;;;1.08;;
10467;SDS011;5281;48.878;9.394;2023-03-13T10:32:17;1.92;;;0.90;;
10467;SDS011;5281;48.878;9.394;2023-03-13T10:34:49;1.60;;;0.90;;
10467;SDS011;5281;48.878;9.394;2023-03-13T10:37:20;1.88;;;0.82;;
10467;SDS011;5281;48.878;9.394;2023-03-13T10:39:49;4.05;;;1.10;;
10467;SDS011;5281;48.878;9.394;2023-03-13T10:42:19;2.70;;;1.00;;
10467;SDS011;5281;48.878;9.394;2023-03-13T10:44:48;2.60;;;0.95;;
10467;SDS011;5281;48.878;9.394;2023-03-13T10:47:15;3.88;;;1.05;;
10467;SDS011;5281;48.878;9.394;2023-03-13T10:49:46;4.07;;;1.17;;
10467;SDS011;5281;48.878;9.394;2023-03-13T10:52:26;2.58;;;1.38;;
10467;SDS011;5281;48.878;9.394;2023-03-13T10:54:58;2.20;;;1.00;;
10467;SDS011;5281;48.878;9.394;2023-03-13T10:57:28;4.55;;;1.20;;
10467;SDS011;5281;48.878;9.394;2023-03-13T10:59:55;2.45;;;0.80;;
10467;SDS011;5281;48.878;9.394;2023-03-13T11:02:25;2.58;;;1.08;;
10467;SDS011;5281;48.878;9.394;2023-03-13T11:04:56;5.65;;;1.65;;
10467;SDS011;5281;48.878;9.394;2023-03-13T11:07:29;3.90;;;0.98;;
10467;SDS011;5281;48.878;9.394;2023-03-13T11:10:00;4.70;;;1.20;;
10467;SDS011;5281;48.878;9.394;2023-03-13T11:12:31;4.40;;;1.20;;
10467;SDS011;5281;48.878;9.394;2023-03-13T11:15:01;2.38;;;1.00;;
10467;SDS011;5281;48.878;9.394;2023-03-13T11:17:39;3.83;;;1.40;;
10467;SDS011;5281;48.878;9.394;2023-03-13T11:20:07;5.20;;;1.38;;
10467;SDS011;5281;48.878;9.394;2023-03-13T11:22:49;2.50;;;1.17;;
10467;SDS011;5281;48.878;9.394;2023-03-13T11:25:22;3.05;;;1.05;;
10467;SDS011;5281;48.878;9.394;2023-03-13T11:27:59;1.42;;;1.00;;
10467;SDS011;5281;48.878;9.394;2023-03-13T11:30:49;2.75;;;1.30;;
10467;SDS011;5281;48.878;9.394;2023-03-13T11:33:34;2.10;;;1.23;;
10467;SDS011;5281;48.878;9.394;2023-03-13T11:36:14;2.00;;;1.02;;
10467;SDS011;5281;48.878;9.394;2023-03-13T11:38:49;6.65;;;2.25;;
10467;SDS011;5281;48.878;9.394;2023-03-13T11:41:21;1.55;;;1.10;;
10467;SDS011;5281;48.878;9.394;2023-03-13T11:44:02;4.63;;;1.50;;
10467;SDS011;5281;48.878;9.394;2023-03-13T11:46:48;1.88;;;1.20;;
10467;SDS011;5281;48.878;9.394;2023-03-13T11:49:26;3.05;;;1.10;;
10467;SDS011;5281;48.878;9.394;2023-03-13T11:52:01;2.70;;;1.35;;
10467;SDS011;5281;48.878;9.394;2023-03-13T11:54:45;1.33;;;1.00;;
10467;SDS011;5281;48.878;9.394;2023-03-13T11:57:20;3.05;;;1.00;;
10467;SDS011;5281;48.878;9.394;2023-03-13T11:59:56;2.33;;;1.17;;
10467;SDS011;5281;48.878;9.394;2023-03-13T12:02:40;30.42;;;27.10;;
10467;SDS011;5281;48.878;9.394;2023-03-13T12:05:14;6.50;;;4.35;;
10467;SDS011;5281;48.878;9.394;2023-03-13T12:07:44;2.92;;;1.23;;
10467;SDS011;5281;48.878;9.394;2023-03-13T12:10:18;2.90;;;1.23;;
10467;SDS011;5281;48.878;9.394;2023-03-13T12:12:54;1.52;;;1.13;;
10467;SDS011;5281;48.878;9.394;2023-03-13T12:15:27;3.00;;;1.30;;
10467;SDS011;5281;48.878;9.394;2023-03-13T12:17:59;3.00;;;1.15;;
10467;SDS011;5281;48.878;9.394;2023-03-13T12:20:30;1.85;;;0.90;;
10467;SDS011;5281;48.878;9.394;2023-03-13T12:23:06;3.13;;;1.10;;
10467;SDS011;5281;48.878;9.394;2023-03-13T12:25:44;2.63;;;1.05;;
10467;SDS011;5281;48.878;9.394;2023-03-13T12:28:18;6.15;;;1.75;;
10467;SDS011;5281;48.878;9.394;2023-03-13T12:30:51;1.25;;;1.00;;
10467;SDS011;5281;48.878;9.394;2023-03-13T12:33:25;1.88;;;0.93;;
10467;SDS011;5281;48.878;9.394;2023-03-13T12:35:57;1.33;;;0.88;;
10467;SDS011;5281;48.878;9.394;2023-03-13T12:38:33;3.40;;;1.38;;
10467;SDS011;5281;48.878;9.394;2023-03-13T12:41:09;6.07;;;1.20;;
10467;SDS011;5281;48.878;9.394;2023-03-13T12:43:43;3.45;;;0.95;;
10467;SDS011;5281;48.878;9.394;2023-03-13T12:49:06;4.22;;;1.15;;
10467;SDS011;5281;48.878;9.394;2023-03-13T12:51:50;2.15;;;0.98;;
10467;SDS011;5281;48.878;9.394;2023-03-13T12:57:26;3.47;;;1.00;;
10467;SDS011;5281;48.878;9.394;2023-03-13T13:00:13;3.10;;;1.20;;
10467;SDS011;5281;48.878;9.394;2023-03-13T13:02:43;7.43;;;1.40;;
10467;SDS011;5281;48.878;9.394;2023-03-13T13:05:15;6.57;;;1.38;;
10467;SDS011;5281;48.878;9.394;2023-03-13T13:07:44;2.00;;;1.10;;
10467;SDS011;5281;48.878;9.394;2023-03-13T13:10:20;1.83;;;0.82;;
10467;SDS011;5281;48.878;9.394;2023-03-13T13:15:45;4.82;;;1.35;;
10467;SDS011;5281;48.878;9.394;2023-03-13T13:18:15;0.70;;;0.57;;
10467;SDS011;5281;48.878;9.394;2023-03-13T13:23:45;1.02;;;0.90;;
10467;SDS011;5281;48.878;9.394;2023-03-13T13:35:29;2.67;;;1.05;;
10467;SDS011;5281;48.878;9.394;2023-03-13T13:46:45;5.32;;;1.98;;
10467;SDS011;5281;48.878;9.394;2023-03-13T13:49:14;2.60;;;1.00;;
10467;SDS011;5281;48.878;9.394;2023-03-13T13:54:54;3.25;;;1.20;;
10467;SDS011;5281;48.878;9.394;2023-03-13T13:57:23;2.22;;;1.00;;
10467;SDS011;5281;48.878;9.394;2023-03-13T13:59:51;3.63;;;2.15;;
10467;SDS011;5281;48.878;9.394;2023-03-13T14:02:23;3.42;;;0.90;;
10467;SDS011;5281;48.878;9.394;2023-03-13T14:05:01;3.92;;;1.08;;
10467;SDS011;5281;48.878;9.394;2023-03-13T14:07:40;5.07;;;1.00;;
10467;SDS011;5281;48.878;9.394;2023-03-13T14:10:18;1.52;;;0.93;;
10467;SDS011;5281;48.878;9.394;2023-03-13T14:12:54;2.00;;;0.70;;
10467;SDS011;5281;48.878;9.394;2023-03-13T14:15:23;2.47;;;1.10;;
10467;SDS011;5281;48.878;9.394;2023-03-13T14:17:52;2.15;;;1.27;;
10467;SDS011;5281;48.878;9.394;2023-03-13T14:20:28;3.13;;;1.10;;
10467;SDS011;5281;48.878;9.394;2023-03-13T14:22:58;8.98;;;1.70;;
10467;SDS011;5281;48.878;9.394;2023-03-13T14:25:26;4.60;;;1.17;;
10467;SDS011;5281;48.878;9.394;2023-03-13T14:27:54;7.32;;;1.30;;
10467;SDS011;5281;48.878;9.394;2023-03-13T14:30:21;5.35;;;1.13;;
10467;SDS011;5281;48.878;9.394;2023-03-13T14:32:50;4.22;;;1.65;;
10467;SDS011;5281;48.878;9.394;2023-03-13T14:35:18;2.75;;;1.20;;
10467;SDS011;5281;48.878;9.394;2023-03-13T14:37:49;8.93;;;1.40;;
10467;SDS011;5281;48.878;9.394;2023-03-13T14:40:22;3.13;;;1.15;;
10467;SDS011;5281;48.878;9.394;2023-03-13T14:42:51;5.75;;;1.33;;
10467;SDS011;5281;48.878;9.394;2023-03-13T14:45:21;2.08;;;1.40;;
10467;SDS011;5281;48.878;9.394;2023-03-13T14:47:54;3.78;;;1.20;;
10467;SDS011;5281;48.878;9.394;2023-03-13T14:50:26;5.30;;;1.40;;
10467;SDS011;5281;48.878;9.394;2023-03-13T14:52:56;7.07;;;1.40;;
10467;SDS011;5281;48.878;9.394;2023-03-13T14:55:28;1.88;;;1.20;;
10467;SDS011;5281;48.878;9.394;2023-03-13T14:57:58;2.47;;;0.95;;
10467;SDS011;5281;48.878;9.394;2023-03-13T15:00:32;1.85;;;0.98;;
10467;SDS011;5281;48.878;9.394;2023-03-13T15:06:16;2.47;;;0.93;;
10467;SDS011;5281;48.878;9.394;2023-03-13T15:08:46;5.57;;;1.20;;
10467;SDS011;5281;48.878;9.394;2023-03-13T15:11:19;3.63;;;1.00;;
10467;SDS011;5281;48.878;9.394;2023-03-13T15:13:51;5.22;;;1.95;;
10467;SDS011;5281;48.878;9.394;2023-03-13T15:16:19;4.57;;;1.45;;
10467;SDS011;5281;48.878;9.394;2023-03-13T15:18:46;3.95;;;1.60;;
10467;SDS011;5281;48.878;9.394;2023-03-13T15:24:09;2.03;;;0.80;;
10467;SDS011;5281;48.878;9.394;2023-03-13T15:26:38;8.13;;;1.55;;
10467;SDS011;5281;48.878;9.394;2023-03-13T15:29:05;2.58;;;0.80;;
10467;SDS011;5281;48.878;9.394;2023-03-13T15:31:32;2.53;;;0.68;;
10467;SDS011;5281;48.878;9.394;2023-03-13T15:33:59;2.53;;;0.82;;
10467;SDS011;5281;48.878;9.394;2023-03-13T15:36:27;3.35;;;0.98;;
10467;SDS011;5281;48.878;9.394;2023-03-13T15:38:54;4.68;;;1.23;;
10467;SDS011;5281;48.878;9.394;2023-03-13T15:41:22;2.78;;;1.20;;
10467;SDS011;5281;48.878;9.394;2023-03-13T15:43:49;2.20;;;0.93;;
10467;SDS011;5281;48.878;9.394;2023-03-13T15:46:19;7.18;;;1.10;;
10467;SDS011;5281;48.878;9.394;2023-03-13T15:48:46;2.15;;;1.20;;
10467;SDS011;5281;48.878;9.394;2023-03-13T15:51:14;3.63;;;1.77;;